Terminal Aerodrome Forecast
Issued by NWS Charleston, WV

Current Version | Previous Version | Graphics & Text | Print | Product List | Glossary On
Versions: 1 2 3 4 5 6 7 8 9 10 11 12 13 14 15 16 17 18 19 20 21 22
000
FTUS41 KRLX 140500
TAFHTS
TAF
KHTS 140535Z 1406/1506 18011G18KT P6SM SCT150
     FM141400 20014G23KT P6SM OVC100
     FM141800 21014G21KT 5SM SHRA VCTS OVC040CB
     FM142000 21013G20KT P6SM OVC040
     FM142200 20012G18KT 5SM SHRA OVC040
     FM150100 20008KT 5SM SHRA OVC030
     FM150500 20008KT 3SM SHRA OVC016=

USA.gov is the U.S. government's official web portal to all federal, state and local government web resources and services.